Time;durP1;ratioP1;P1;durP2;ratioP2;P2;SDS_P1;SDS_P2;PMS_P1;PMS_P2;Temp;Humidity;BMP_temperature;BMP_pressure;BME280_temperature;BME280_humidity;BME280_pressure;Samples;Min_cycle;Max_cycle;Signal;HPM_P1;HPM_P2
2021/06/25 00:02:02;;;;;;;10.10;6.90;;;;;;;17.10;80.94;99144.81;3550326;40;20061;-64
2021/06/25 00:04:30;;;;;;;8.88;7.28;;;;;;;17.12;80.89;99148.06;3549132;40;20462;-65
2021/06/25 00:06:57;;;;;;;7.97;7.07;;;;;;;17.09;80.87;99149.34;3550148;40;20058;-65
2021/06/25 00:09:25;;;;;;;6.80;6.10;;;;;;;17.14;81.29;99142.50;3550132;40;20054;-64
2021/06/25 00:11:53;;;;;;;8.32;7.22;;;;;;;17.13;81.23;99140.88;3550461;40;20287;-64
2021/06/25 00:14:23;;;;;;;8.57;7.57;;;;;;;17.10;80.90;99139.47;3550159;40;20299;-65
2021/06/25 00:16:51;;;;;;;7.63;6.55;;;;;;;17.06;81.19;99133.78;3549667;40;20057;-64
2021/06/25 00:19:19;;;;;;;8.20;7.00;;;;;;;17.07;80.90;99132.72;3549941;40;20091;-65
2021/06/25 00:21:48;;;;;;;7.38;6.70;;;;;;;17.11;81.02;99142.97;3549986;40;20050;-65
2021/06/25 00:24:15;;;;;;;8.05;6.72;;;;;;;17.13;80.98;99133.66;3549955;40;20042;-65
2021/06/25 00:26:43;;;;;;;11.30;7.68;;;;;;;17.13;80.88;99141.69;3552428;40;20050;-65
2021/06/25 00:29:11;;;;;;;9.93;7.97;;;;;;;17.09;80.88;99132.50;3552425;40;20050;-64
2021/06/25 00:31:40;;;;;;;8.90;8.00;;;;;;;17.11;81.05;99140.31;3552143;40;20050;-65
2021/06/25 00:34:08;;;;;;;8.38;7.43;;;;;;;17.09;81.01;99135.16;3550806;40;20054;-65
2021/06/25 00:36:36;;;;;;;11.02;7.85;;;;;;;17.12;81.38;99133.91;3549684;40;20046;-65
2021/06/25 00:39:04;;;;;;;9.15;8.18;;;;;;;17.04;81.41;99133.19;3552425;40;20348;-65
2021/06/25 00:41:32;;;;;;;10.18;8.60;;;;;;;17.07;81.60;99135.41;3552144;40;20042;-65
2021/06/25 00:43:59;;;;;;;9.25;8.32;;;;;;;17.13;81.26;99133.66;3550433;40;20051;-65
2021/06/25 00:46:30;;;;;;;9.70;8.68;;;;;;;17.20;81.06;99138.94;3549968;40;20053;-65
2021/06/25 00:48:59;;;;;;;9.85;8.48;;;;;;;17.19;81.31;99134.63;3550650;40;20109;-65
2021/06/25 00:51:27;;;;;;;10.82;9.73;;;;;;;17.15;81.15;99130.78;3550225;40;20082;-65
2021/06/25 00:53:54;;;;;;;9.52;8.63;;;;;;;17.09;81.59;99135.97;3550401;40;20050;-64
2021/06/25 00:56:22;;;;;;;9.98;8.98;;;;;;;17.12;81.44;99132.06;3549784;40;20050;-64
2021/06/25 00:58:51;;;;;;;10.23;9.02;;;;;;;17.08;81.26;99139.69;3550327;40;20066;-64
2021/06/25 01:01:19;;;;;;;13.45;10.50;;;;;;;17.06;81.27;99132.94;3551831;40;20061;-65
2021/06/25 01:03:47;;;;;;;11.85;9.60;;;;;;;17.02;81.72;99129.09;3551135;40;20050;-64
2021/06/25 01:06:16;;;;;;;10.57;9.57;;;;;;;17.02;81.29;99132.59;3551504;40;20120;-65
2021/06/25 01:08:44;;;;;;;11.27;10.18;;;;;;;17.06;81.67;99133.78;3550989;40;20058;-65
2021/06/25 01:11:12;;;;;;;12.05;10.13;;;;;;;17.01;81.73;99133.63;3549933;40;20353;-65
2021/06/25 01:13:42;;;;;;;11.25;9.98;;;;;;;17.04;81.86;99133.19;3549738;40;20050;-64
2021/06/25 01:16:10;;;;;;;15.15;11.05;;;;;;;17.06;81.78;99130.28;3549257;40;20075;-65
2021/06/25 01:18:38;;;;;;;11.90;10.50;;;;;;;17.00;81.75;99126.66;3548848;40;20360;-64
2021/06/25 01:21:07;;;;;;;13.57;12.18;;;;;;;17.01;81.69;99130.16;3550104;40;20132;-65
2021/06/25 01:23:39;;;;;;;13.65;11.52;;;;;;;16.98;82.21;99125.25;3548540;40;20050;-64
2021/06/25 01:26:07;;;;;;;18.33;11.95;;;;;;;16.93;82.38;99127.78;3549737;40;20047;-63
2021/06/25 01:28:36;;;;;;;13.00;10.35;;;;;;;16.95;82.29;99128.38;3548891;40;20064;-63
2021/06/25 01:31:05;;;;;;;13.68;11.30;;;;;;;17.01;82.24;99128.28;3549699;40;20038;-65
2021/06/25 01:33:34;;;;;;;12.20;10.70;;;;;;;17.07;81.99;99131.91;3548650;40;20054;-65
2021/06/25 01:36:03;;;;;;;15.52;11.75;;;;;;;17.12;81.67;99132.06;3549291;40;20083;-64
2021/06/25 01:38:32;;;;;;;13.13;11.57;;;;;;;17.19;81.92;99124.75;3549835;40;20090;-64
2021/06/25 01:41:00;;;;;;;13.88;11.85;;;;;;;17.18;81.65;99130.31;3549584;40;20081;-64
2021/06/25 01:43:28;;;;;;;13.68;11.52;;;;;;;17.21;81.31;99129.88;3549578;40;20086;-64
2021/06/25 01:45:57;;;;;;;15.98;13.57;;;;;;;17.17;81.28;99128.69;3549077;40;20046;-64
2021/06/25 01:48:25;;;;;;;21.13;15.88;;;;;;;17.08;80.80;99128.22;3549409;40;20057;-64
2021/06/25 01:50:54;;;;;;;20.05;16.05;;;;;;;17.04;81.08;99129.69;3549617;40;20058;-64
2021/06/25 01:53:22;;;;;;;17.90;14.88;;;;;;;17.01;81.26;99132.81;3549587;40;20321;-64
2021/06/25 01:55:51;;;;;;;20.50;16.60;;;;;;;17.00;81.28;99129.34;3549251;40;20050;-64
2021/06/25 01:58:21;;;;;;;18.33;16.33;;;;;;;17.01;81.23;99130.94;3549367;40;20093;-64
2021/06/25 02:00:55;;;;;;;20.63;16.88;;;;;;;16.99;81.23;99129.56;3549503;40;20361;-64
2021/06/25 02:03:23;;;;;;;20.40;16.90;;;;;;;17.03;80.68;99120.88;3549376;40;20137;-65
2021/06/25 02:05:51;;;;;;;27.60;18.33;;;;;;;17.06;80.63;99119.59;3549133;40;20054;-64
2021/06/25 02:08:19;;;;;;;22.67;17.83;;;;;;;17.06;80.40;99124.94;3550039;40;20054;-63
2021/06/25 02:10:46;;;;;;;24.38;20.42;;;;;;;17.02;80.24;99115.75;3550151;40;20050;-63
2021/06/25 02:13:15;;;;;;;28.50;20.08;;;;;;;17.02;80.22;99121.94;3549945;40;20053;-63
2021/06/25 02:15:43;;;;;;;26.88;21.08;;;;;;;17.00;80.50;99124.00;3549676;40;20058;-63
2021/06/25 02:18:11;;;;;;;30.50;24.20;;;;;;;16.94;80.01;99121.41;3549068;40;20079;-63
2021/06/25 02:20:39;;;;;;;29.30;22.58;;;;;;;16.96;80.48;99114.81;3549793;40;20089;-64
2021/06/25 02:23:07;;;;;;;36.17;22.85;;;;;;;16.97;80.04;99123.63;3549911;40;20069;-64
2021/06/25 02:25:34;;;;;;;29.20;25.40;;;;;;;16.95;79.98;99120.38;3550105;40;20046;-63
2021/06/25 02:28:02;;;;;;;30.20;26.42;;;;;;;16.94;80.04;99126.75;3549049;40;20353;-65
2021/06/25 02:30:31;;;;;;;33.53;25.92;;;;;;;16.97;80.26;99120.94;3549602;40;20056;-63
2021/06/25 02:33:00;;;;;;;29.60;24.90;;;;;;;16.97;80.23;99123.63;3549481;40;20452;-64
2021/06/25 02:35:27;;;;;;;35.38;26.20;;;;;;;16.93;79.86;99123.25;3549302;40;20061;-64
2021/06/25 02:37:56;;;;;;;32.17;25.05;;;;;;;16.92;80.10;99126.16;3548387;40;20058;-64
2021/06/25 02:40:24;;;;;;;31.35;25.60;;;;;;;16.91;80.22;99128.03;3549257;40;20069;-63
2021/06/25 02:42:53;;;;;;;34.60;27.38;;;;;;;16.88;79.90;99119.66;3549317;40;20329;-62
2021/06/25 02:45:21;;;;;;;34.83;27.77;;;;;;;16.83;80.09;99129.16;3549246;40;20034;-63
2021/06/25 02:47:50;;;;;;;38.40;29.02;;;;;;;16.81;79.54;99130.41;3548787;40;20050;-63
2021/06/25 02:50:18;;;;;;;38.40;29.98;;;;;;;16.82;79.46;99129.38;3549305;40;20050;-63
2021/06/25 02:52:45;;;;;;;37.78;29.52;;;;;;;16.85;79.86;99128.91;3549680;40;20106;-65
2021/06/25 02:55:13;;;;;;;37.83;30.15;;;;;;;16.84;79.31;99128.09;3549221;40;20073;-63
2021/06/25 02:57:42;;;;;;;38.00;30.52;;;;;;;16.81;79.46;99128.53;3548709;40;20058;-65
2021/06/25 03:00:12;;;;;;;41.97;32.15;;;;;;;16.76;79.61;99131.06;3549041;40;20051;-65
2021/06/25 03:02:42;;;;;;;39.90;32.28;;;;;;;16.76;79.23;99133.75;3547945;40;20050;-64
2021/06/25 03:05:13;;;;;;;43.25;33.10;;;;;;;16.73;79.63;99134.19;3549143;40;20305;-64
2021/06/25 03:07:41;;;;;;;40.28;32.60;;;;;;;16.74;79.46;99129.69;3548748;40;20046;-64
2021/06/25 03:10:10;;;;;;;40.20;32.78;;;;;;;16.75;79.07;99139.31;3548875;40;20050;-64
2021/06/25 03:12:38;;;;;;;43.00;31.67;;;;;;;16.72;79.16;99132.53;3549128;40;20090;-64
2021/06/25 03:15:08;;;;;;;39.17;31.48;;;;;;;16.73;79.23;99136.03;3549980;40;20054;-64
2021/06/25 03:17:36;;;;;;;44.22;35.55;;;;;;;16.74;79.05;99132.38;3553510;40;20058;-64
2021/06/25 03:20:06;;;;;;;39.83;33.20;;;;;;;16.68;79.08;99131.34;3554494;40;20098;-63
2021/06/25 03:22:35;;;;;;;42.38;32.00;;;;;;;16.68;78.73;99127.88;3553187;40;20063;-64
2021/06/25 03:25:04;;;;;;;42.58;32.42;;;;;;;16.70;78.76;99126.63;3552137;40;20050;-64
2021/06/25 03:27:32;;;;;;;44.28;34.95;;;;;;;16.69;78.71;99121.47;3551478;40;20085;-64
2021/06/25 03:30:00;;;;;;;47.92;35.13;;;;;;;16.70;78.82;99125.81;3550287;40;20046;-64
2021/06/25 03:32:28;;;;;;;47.13;34.55;;;;;;;16.71;78.72;99119.41;3549933;40;20110;-64
2021/06/25 03:34:56;;;;;;;45.55;35.78;;;;;;;16.71;78.51;99122.09;3549241;40;20140;-64
2021/06/25 03:37:24;;;;;;;46.75;35.67;;;;;;;16.68;78.04;99125.19;3547426;40;20062;-63
2021/06/25 03:39:53;;;;;;;44.80;36.00;;;;;;;16.69;78.41;99124.16;3548077;40;20058;-63
2021/06/25 03:42:21;;;;;;;48.42;35.25;;;;;;;16.76;78.27;99122.25;3551030;40;20042;-64
2021/06/25 03:44:48;;;;;;;47.08;34.95;;;;;;;16.81;77.68;99123.19;3553250;40;20066;-64
2021/06/25 03:47:16;;;;;;;43.63;34.10;;;;;;;16.84;78.04;99129.97;3552851;40;20055;-63
2021/06/25 03:49:44;;;;;;;43.15;35.28;;;;;;;16.84;77.50;99125.44;3553930;40;20056;-63
2021/06/25 03:52:17;;;;;;;46.78;34.38;;;;;;;16.81;77.29;99125.06;3548884;40;20046;-65
2021/06/25 03:54:45;;;;;;;46.50;34.05;;;;;;;16.86;77.47;99127.06;3549857;40;20078;-65
2021/06/25 03:57:15;;;;;;;42.22;35.22;;;;;;;16.80;77.43;99126.09;3548296;40;20050;-64
2021/06/25 03:59:42;;;;;;;44.20;34.03;;;;;;;16.75;77.37;99132.13;3548686;40;20051;-64
2021/06/25 04:02:11;;;;;;;46.53;37.25;;;;;;;16.74;77.49;99129.69;3548781;40;20050;-64
2021/06/25 04:04:39;;;;;;;45.88;38.47;;;;;;;16.70;77.28;99131.97;3548734;40;20061;-64
2021/06/25 04:07:10;;;;;;;47.60;35.88;;;;;;;16.59;77.46;99124.69;3548253;40;20046;-64
2021/06/25 04:09:39;;;;;;;48.03;35.75;;;;;;;16.59;77.53;99128.16;3547760;40;20073;-65
2021/06/25 04:12:08;;;;;;;46.95;35.70;;;;;;;16.65;77.33;99120.31;3548504;40;20360;-65
2021/06/25 04:14:37;;;;;;;42.22;35.60;;;;;;;16.64;77.05;99121.34;3547718;40;20049;-64
2021/06/25 04:17:05;;;;;;;46.83;37.78;;;;;;;16.62;77.44;99121.59;3548435;40;20082;-64
2021/06/25 04:19:33;;;;;;;46.58;36.83;;;;;;;16.63;76.76;99125.88;3548659;40;20054;-64
2021/06/25 04:22:01;;;;;;;48.53;35.58;;;;;;;16.65;77.04;99133.66;3548598;40;20050;-64
2021/06/25 04:24:28;;;;;;;48.17;37.67;;;;;;;16.64;76.73;99127.50;3548559;40;20046;-65
2021/06/25 04:26:59;;;;;;;46.22;36.70;;;;;;;16.66;76.53;99130.78;3548288;40;20404;-64
2021/06/25 04:29:27;;;;;;;44.95;35.58;;;;;;;16.67;77.03;99132.41;3548369;40;20059;-64
2021/06/25 04:31:56;;;;;;;49.35;38.60;;;;;;;16.69;76.61;99129.50;3548382;40;20054;-64
2021/06/25 04:34:24;;;;;;;49.15;39.25;;;;;;;16.73;76.97;99125.38;3548273;40;20072;-64
2021/06/25 04:36:52;;;;;;;48.22;35.78;;;;;;;16.69;76.80;99132.97;3547398;40;20054;-64
2021/06/25 04:39:20;;;;;;;46.70;35.85;;;;;;;16.75;76.94;99124.13;3548130;40;20116;-63
2021/06/25 04:41:48;;;;;;;43.67;35.70;;;;;;;16.81;76.68;99120.53;3549986;40;20062;-64
2021/06/25 04:44:16;;;;;;;66.55;56.28;;;;;;;16.89;76.96;99118.59;3549824;40;20061;-64
2021/06/25 04:46:44;;;;;;;58.42;42.38;;;;;;;16.86;76.74;99125.22;3549444;40;20042;-64
2021/06/25 04:49:13;;;;;;;49.67;36.45;;;;;;;16.90;77.11;99125.56;3549763;40;20053;-64
2021/06/25 04:51:41;;;;;;;45.38;37.70;;;;;;;16.89;76.68;99129.28;3550065;40;20054;-63
2021/06/25 04:54:09;;;;;;;46.28;36.72;;;;;;;16.95;76.84;99126.53;3548894;40;20082;-65
2021/06/25 04:56:37;;;;;;;44.35;34.90;;;;;;;16.93;76.80;99125.13;3548660;40;20285;-64
2021/06/25 04:59:04;;;;;;;50.17;37.72;;;;;;;16.89;76.87;99123.94;3550046;40;20038;-64
2021/06/25 05:01:33;;;;;;;46.47;36.00;;;;;;;16.88;76.57;99128.47;3549746;40;20058;-65
2021/06/25 05:04:01;;;;;;;49.58;37.88;;;;;;;16.87;76.68;99131.38;3549843;40;20128;-63
2021/06/25 05:06:30;;;;;;;45.53;35.55;;;;;;;16.89;76.26;99134.63;3548659;40;20053;-63
2021/06/25 05:08:58;;;;;;;48.42;37.05;;;;;;;16.87;76.38;99136.72;3548788;40;20057;-65
2021/06/25 05:11:26;;;;;;;42.72;33.35;;;;;;;16.90;76.78;99128.22;3549640;40;20065;-64
2021/06/25 05:13:54;;;;;;;44.17;37.15;;;;;;;16.96;76.19;99133.50;3550040;40;20407;-64
2021/06/25 05:16:22;;;;;;;47.63;35.60;;;;;;;16.96;76.16;99136.16;3549498;40;20050;-64
2021/06/25 05:18:49;;;;;;;47.50;37.97;;;;;;;16.94;76.02;99129.41;3548790;40;20152;-64
2021/06/25 05:21:20;;;;;;;49.80;37.20;;;;;;;16.88;75.43;99128.47;3549765;40;20050;-64
2021/06/25 05:23:50;;;;;;;46.10;37.67;;;;;;;16.80;75.67;99126.91;3549371;40;20050;-64
2021/06/25 05:26:20;;;;;;;56.67;36.47;;;;;;;16.69;75.56;99126.81;3549345;40;20303;-64
2021/06/25 05:28:48;;;;;;;51.95;38.30;;;;;;;16.71;76.22;99132.78;3549818;40;20074;-63
2021/06/25 05:31:16;;;;;;;50.58;37.80;;;;;;;16.76;75.72;99131.06;3549858;40;20042;-63
2021/06/25 05:33:43;;;;;;;50.33;38.33;;;;;;;16.86;75.68;99137.72;3550008;40;20055;-64
2021/06/25 05:36:11;;;;;;;48.20;37.30;;;;;;;16.90;75.80;99138.91;3549774;40;20042;-63
2021/06/25 05:38:39;;;;;;;47.72;36.63;;;;;;;16.97;75.23;99134.31;3549592;40;20058;-63
2021/06/25 05:41:08;;;;;;;44.63;35.13;;;;;;;17.03;75.09;99144.91;3550116;40;20065;-63
2021/06/25 05:43:36;;;;;;;46.05;37.17;;;;;;;17.06;74.84;99139.13;3549577;40;20046;-63
2021/06/25 05:46:04;;;;;;;48.25;38.95;;;;;;;17.13;74.20;99147.03;3548751;40;20027;-63
2021/06/25 05:48:32;;;;;;;47.47;37.58;;;;;;;17.15;74.58;99149.50;3548911;40;20297;-63
2021/06/25 05:51:00;;;;;;;46.60;37.28;;;;;;;17.13;74.47;99143.53;3548462;40;20042;-63
2021/06/25 05:53:30;;;;;;;47.85;36.63;;;;;;;17.14;74.41;99150.50;3549440;40;20065;-63
2021/06/25 05:55:58;;;;;;;50.25;37.53;;;;;;;17.24;74.44;99156.94;3549411;40;20046;-63
2021/06/25 05:58:27;;;;;;;47.70;38.15;;;;;;;17.26;74.17;99157.53;3549456;40;20045;-63
2021/06/25 06:00:55;;;;;;;45.92;35.85;;;;;;;17.26;73.52;99156.72;3549430;40;20018;-63
2021/06/25 06:03:22;;;;;;;42.65;36.45;;;;;;;17.31;73.75;99149.66;3549433;40;20054;-63
2021/06/25 06:05:50;;;;;;;46.35;36.58;;;;;;;17.37;72.88;99155.13;3549132;40;20057;-65
2021/06/25 06:08:18;;;;;;;45.78;35.88;;;;;;;17.41;72.73;99153.63;3549166;40;20062;-65
2021/06/25 06:10:46;;;;;;;41.67;35.72;;;;;;;17.47;72.77;99153.53;3549167;40;20078;-65
2021/06/25 06:13:13;;;;;;;43.65;34.15;;;;;;;17.61;72.73;99164.84;3549217;40;20365;-64
2021/06/25 06:15:43;;;;;;;40.35;33.08;;;;;;;17.70;72.56;99174.16;3549251;40;20094;-64
2021/06/25 06:18:13;;;;;;;44.03;32.65;;;;;;;17.79;72.52;99164.78;3549099;40;20297;-64
2021/06/25 06:20:41;;;;;;;42.15;34.58;;;;;;;17.86;71.67;99169.22;3549283;40;20061;-64
2021/06/25 06:31:27;;;;;;;39.28;30.10;;;;;;;17.72;70.91;99177.41;3549389;40;20061;-66
2021/06/25 06:33:56;;;;;;;33.60;27.98;;;;;;;17.80;71.43;99166.41;3549359;40;20355;-63
2021/06/25 06:36:26;;;;;;;36.90;30.23;;;;;;;17.98;70.96;99165.50;3549138;40;20097;-63
2021/06/25 06:38:57;;;;;;;36.03;28.65;;;;;;;17.98;70.25;99164.69;3549845;40;20419;-64
2021/06/25 06:41:26;;;;;;;38.78;30.23;;;;;;;18.05;70.42;99168.88;3548477;40;20080;-64
2021/06/25 06:43:54;;;;;;;35.38;29.95;;;;;;;18.15;70.19;99167.47;3549525;40;20408;-64
2021/06/25 06:46:22;;;;;;;38.10;29.80;;;;;;;18.27;70.01;99165.63;3548926;40;20045;-65
2021/06/25 06:48:52;;;;;;;35.70;29.35;;;;;;;18.30;69.66;99165.97;3549220;40;20510;-63
2021/06/25 06:51:21;;;;;;;35.60;30.10;;;;;;;18.37;69.56;99160.50;3548390;40;20046;-63
2021/06/25 06:53:50;;;;;;;33.30;28.45;;;;;;;18.33;69.16;99162.03;3549236;40;20045;-64
2021/06/25 06:56:19;;;;;;;32.50;28.23;;;;;;;18.30;69.00;99165.16;3548909;40;20399;-64
2021/06/25 06:58:48;;;;;;;33.08;27.45;;;;;;;18.31;69.34;99169.44;3548978;40;20089;-65
2021/06/25 07:01:16;;;;;;;35.60;27.45;;;;;;;18.37;68.69;99173.03;3548889;40;20097;-64
2021/06/25 07:04:07;;;;;;;34.38;27.80;;;;;;;18.35;68.63;99180.50;3548860;40;20109;-64
2021/06/25 07:06:34;;;;;;;33.78;27.38;;;;;;;18.50;68.97;99181.66;3548716;40;20297;-64
2021/06/25 07:09:02;;;;;;;32.72;26.90;;;;;;;18.49;67.76;99190.75;3548863;40;20336;-64
2021/06/25 07:11:30;;;;;;;34.28;27.20;;;;;;;18.44;67.32;99187.13;3548969;40;20057;-65
2021/06/25 07:13:58;;;;;;;31.65;27.15;;;;;;;18.51;67.29;99188.63;3549025;40;20405;-65
2021/06/25 07:16:25;;;;;;;34.15;26.42;;;;;;;18.60;66.92;99193.63;3548627;40;20061;-64
2021/06/25 07:18:53;;;;;;;30.10;26.77;;;;;;;18.64;66.13;99195.59;3549902;40;20776;-64
2021/06/25 07:21:22;;;;;;;36.17;26.20;;;;;;;18.65;66.41;99186.50;3549830;40;20061;-64
2021/06/25 07:23:50;;;;;;;32.95;26.13;;;;;;;18.84;66.20;99189.88;3548887;40;20057;-64
2021/06/25 07:26:20;;;;;;;30.02;24.98;;;;;;;19.12;65.66;99190.97;3549774;40;20050;-64
2021/06/25 07:28:48;;;;;;;33.28;28.50;;;;;;;19.28;65.10;99193.72;3550090;40;20046;-64
2021/06/25 07:31:20;;;;;;;27.65;23.63;;;;;;;19.40;65.16;99195.53;3550310;40;20050;-64
2021/06/25 07:33:49;;;;;;;30.90;25.60;;;;;;;19.60;64.71;99193.22;3550240;40;20090;-63
2021/06/25 07:36:17;;;;;;;33.78;27.95;;;;;;;19.56;64.54;99194.75;3549449;40;20128;-63
2021/06/25 07:38:46;;;;;;;31.65;26.70;;;;;;;19.47;64.14;99193.50;3548829;40;20066;-65
2021/06/25 07:41:14;;;;;;;32.08;26.52;;;;;;;19.46;64.21;99194.56;3549196;40;20054;-64
2021/06/25 07:43:42;;;;;;;32.45;28.80;;;;;;;19.35;63.79;99201.63;3548746;40;20061;-64
2021/06/25 07:46:10;;;;;;;32.85;26.42;;;;;;;19.32;63.96;99188.69;3548366;40;20054;-64
2021/06/25 07:48:38;;;;;;;28.52;25.48;;;;;;;19.35;64.23;99196.25;3548423;40;20332;-64
2021/06/25 07:51:06;;;;;;;31.67;26.85;;;;;;;19.43;64.06;99200.38;3548753;40;20046;-64
2021/06/25 07:53:34;;;;;;;28.27;24.80;;;;;;;19.30;63.33;99193.47;3548683;40;20058;-63
2021/06/25 07:56:03;;;;;;;28.60;24.17;;;;;;;19.19;63.23;99194.34;3548443;40;20042;-63
2021/06/25 07:58:31;;;;;;;28.52;23.98;;;;;;;19.06;63.44;99195.41;3548697;40;20086;-64
2021/06/25 08:00:59;;;;;;;29.40;24.73;;;;;;;18.96;63.95;99197.91;3547745;40;20077;-65
2021/06/25 08:03:27;;;;;;;27.08;21.95;;;;;;;18.97;64.14;99194.97;3548824;40;20046;-64
2021/06/25 08:05:56;;;;;;;29.45;23.20;;;;;;;18.99;64.71;99197.44;3548282;40;20046;-64
2021/06/25 08:08:23;;;;;;;31.17;24.25;;;;;;;19.04;64.71;99190.28;3604064;23;20403;-61
2021/06/25 08:10:51;;;;;;;27.88;24.85;;;;;;;18.95;64.04;99196.28;3548486;40;20047;-61
2021/06/25 08:13:21;;;;;;;30.30;25.52;;;;;;;18.93;63.83;99187.66;3548200;40;20057;-62
2021/06/25 08:15:50;;;;;;;29.75;22.75;;;;;;;18.89;64.09;99192.66;3549360;40;20046;-61
2021/06/25 08:18:22;;;;;;;30.45;24.80;;;;;;;18.93;64.36;99193.81;3550036;40;20046;-61
2021/06/25 08:20:50;;;;;;;29.85;25.63;;;;;;;18.96;64.40;99187.19;3550242;40;20355;-61
2021/06/25 08:23:17;;;;;;;32.83;24.80;;;;;;;18.84;64.29;99195.25;3550462;40;20077;-61
2021/06/25 08:25:45;;;;;;;31.58;25.58;;;;;;;18.86;64.54;99192.31;3550417;40;20050;-62
2021/06/25 08:28:14;;;;;;;32.53;25.48;;;;;;;18.91;64.75;99197.81;3549884;40;20053;-62
2021/06/25 08:30:43;;;;;;;30.45;25.58;;;;;;;18.91;64.75;99195.13;3550032;40;20093;-61
2021/06/25 08:33:11;;;;;;;25.27;22.48;;;;;;;18.84;64.24;99189.88;3550003;40;20112;-61
2021/06/25 08:35:38;;;;;;;25.45;21.05;;;;;;;18.81;64.02;99193.84;3549931;40;20072;-61
2021/06/25 08:38:06;;;;;;;28.23;24.13;;;;;;;18.58;63.98;99190.38;3549611;40;20090;-61
2021/06/25 08:40:34;;;;;;;28.20;24.35;;;;;;;18.50;64.15;99195.06;3549738;40;20439;-60
2021/06/25 08:43:02;;;;;;;25.80;21.95;;;;;;;18.38;63.84;99188.88;3549985;40;20110;-61
2021/06/25 08:45:31;;;;;;;29.58;24.33;;;;;;;18.27;64.11;99190.50;3548751;40;20042;-61
2021/06/25 08:48:03;;;;;;;28.25;24.15;;;;;;;18.24;64.39;99187.47;3549495;40;20093;-61
2021/06/25 08:50:37;;;;;;;26.15;21.83;;;;;;;18.27;64.56;99179.81;3549850;40;20422;-61
2021/06/25 08:53:05;;;;;;;27.88;21.17;;;;;;;18.41;64.59;99190.25;3549771;40;20073;-61
2021/06/25 08:55:33;;;;;;;25.95;23.15;;;;;;;18.39;63.83;99187.03;3549200;40;20082;-61
2021/06/25 08:58:01;;;;;;;29.17;23.15;;;;;;;18.29;63.82;99192.97;3548493;40;20054;-62
2021/06/25 09:00:29;;;;;;;28.63;24.15;;;;;;;18.17;63.83;99189.47;3549588;40;20054;-61
2021/06/25 09:02:57;;;;;;;26.30;23.55;;;;;;;18.24;64.53;99193.66;3549665;40;20046;-61
2021/06/25 09:05:28;;;;;;;28.08;22.52;;;;;;;18.39;64.19;99187.84;3548740;40;20050;-61
2021/06/25 09:07:58;;;;;;;29.05;24.00;;;;;;;18.40;63.95;99194.00;3549540;40;20427;-61
2021/06/25 09:10:32;;;;;;;28.02;24.25;;;;;;;18.29;63.96;99187.63;3549554;40;20053;-60
2021/06/25 09:13:04;;;;;;;30.58;23.67;;;;;;;18.47;64.08;99190.16;3549660;40;20054;-61
2021/06/25 09:15:32;;;;;;;28.58;22.33;;;;;;;18.59;63.89;99187.47;3549650;40;20038;-61
2021/06/25 09:18:03;;;;;;;28.92;23.40;;;;;;;18.67;64.10;99188.97;3549341;40;20030;-61
2021/06/25 09:20:40;;;;;;;28.08;23.05;;;;;;;18.72;63.66;99181.88;3548695;40;20042;-61
2021/06/25 09:23:10;;;;;;;29.38;23.88;;;;;;;18.88;63.99;99184.88;3549547;40;20050;-61
2021/06/25 09:25:52;;;;;;;26.90;22.48;;;;;;;18.98;62.88;99182.38;3549779;40;20054;-61
2021/06/25 09:28:22;;;;;;;26.48;22.42;;;;;;;19.07;62.98;99178.31;3548518;40;20301;-62
2021/06/25 09:30:50;;;;;;;27.10;24.15;;;;;;;19.17;62.67;99177.66;3548715;40;20050;-61
2021/06/25 09:33:18;;;;;;;28.88;24.80;;;;;;;19.10;62.32;99180.47;3549768;40;20031;-61
2021/06/25 09:35:52;;;;;;;31.27;28.00;;;;;;;19.00;62.69;99183.78;3550012;40;20046;-60
2021/06/25 09:38:37;;;;;;;31.17;27.48;;;;;;;18.82;63.15;99181.28;3550151;40;20054;-60
2021/06/25 09:41:19;;;;;;;29.27;25.25;;;;;;;18.62;64.01;99180.84;3551336;40;20023;-61
2021/06/25 09:43:55;;;;;;;28.77;25.45;;;;;;;18.43;64.85;99180.97;3551359;40;20086;-61
2021/06/25 09:46:30;;;;;;;29.70;25.33;;;;;;;18.27;65.21;99182.47;3551065;40;20050;-61
2021/06/25 09:49:00;;;;;;;28.77;24.27;;;;;;;18.21;65.98;99188.78;3551350;40;20026;-60
2021/06/25 09:51:31;;;;;;;36.92;27.38;;;;;;;18.27;66.26;99190.50;3550639;40;20057;-61
2021/06/25 09:54:04;;;;;;;35.65;25.05;;;;;;;18.26;66.98;99188.06;3551954;40;20023;-61
2021/06/25 09:56:36;;;;;;;34.67;25.70;;;;;;;18.28;67.25;99188.66;3551352;40;20347;-61
2021/06/25 09:59:38;;;;;;;35.63;27.25;;;;;;;18.28;67.50;99184.09;3551743;40;20081;-61
2021/06/25 10:02:26;;;;;;;36.80;28.23;;;;;;;18.37;67.88;99189.94;3551381;40;20042;-61
2021/06/25 10:04:55;;;;;;;34.80;27.10;;;;;;;18.34;67.64;99194.94;3551249;40;20054;-61
2021/06/25 10:07:27;;;;;;;36.95;30.33;;;;;;;18.43;67.76;99188.19;3550812;40;20045;-60
2021/06/25 10:09:57;;;;;;;38.25;31.35;;;;;;;18.53;67.72;99183.03;3551473;40;20403;-61
2021/06/25 10:12:25;;;;;;;32.97;29.42;;;;;;;18.66;67.49;99192.72;3551369;40;20052;-61
2021/06/25 10:14:55;;;;;;;35.17;28.05;;;;;;;18.84;67.09;99184.53;3550512;40;20042;-60
2021/06/25 10:17:27;;;;;;;32.95;27.50;;;;;;;18.91;67.01;99181.72;3549930;40;20567;-62
2021/06/25 10:20:04;;;;;;;32.72;27.85;;;;;;;19.08;66.62;99182.59;3551541;40;20046;-63
2021/06/25 10:22:34;;;;;;;32.28;27.00;;;;;;;19.26;66.81;99178.91;3551976;40;20081;-61
2021/06/25 10:25:05;;;;;;;40.05;34.08;;;;;;;19.45;65.66;99179.53;3551945;40;20426;-62
2021/06/25 10:27:34;;;;;;;30.30;26.63;;;;;;;19.50;65.54;99176.94;3551079;40;20045;-62
2021/06/25 10:30:04;;;;;;;32.58;29.02;;;;;;;19.55;64.79;99179.69;3551393;40;20082;-62
2021/06/25 10:32:33;;;;;;;31.13;26.10;;;;;;;19.46;64.53;99175.78;3551647;40;20061;-62
2021/06/25 10:35:01;;;;;;;34.85;29.88;;;;;;;19.55;64.15;99177.84;3551265;40;20062;-61
2021/06/25 10:37:30;;;;;;;40.67;32.63;;;;;;;19.57;63.67;99174.09;3550271;40;20050;-61
2021/06/25 10:40:19;;;;;;;32.58;28.55;;;;;;;19.45;63.63;99168.81;3550920;40;20046;-61
2021/06/25 10:42:47;;;;;;;32.22;28.45;;;;;;;19.20;64.47;99167.28;3550588;40;20584;-61
2021/06/25 10:45:15;;;;;;;36.40;26.10;;;;;;;19.14;64.97;99162.06;3550173;40;20052;-62
2021/06/25 10:47:53;;;;;;;31.00;27.75;;;;;;;19.41;65.51;99173.03;3550362;40;20059;-59
2021/06/25 10:50:25;;;;;;;34.47;30.73;;;;;;;19.46;65.31;99170.41;3550614;40;20037;-62
2021/06/25 10:53:17;;;;;;;26.38;22.55;;;;;;;19.75;65.44;99177.38;3549138;40;20128;-61
2021/06/25 10:56:03;;;;;;;30.13;26.92;;;;;;;20.07;64.36;99176.81;3549619;40;20050;-62
2021/06/25 10:58:32;;;;;;;31.15;26.02;;;;;;;20.32;63.70;99176.38;3549720;40;20082;-61
2021/06/25 11:01:02;;;;;;;34.65;31.23;;;;;;;20.48;62.13;99172.88;3550334;40;20050;-61
2021/06/25 11:03:50;;;;;;;33.35;29.95;;;;;;;20.56;61.08;99170.84;3550309;40;20136;-62
2021/06/25 11:06:55;;;;;;;27.45;24.50;;;;;;;20.65;61.34;99166.63;3548781;40;20066;-60
2021/06/25 11:09:24;;;;;;;32.13;28.48;;;;;;;20.79;60.81;99157.16;3550479;40;20057;-61
2021/06/25 11:12:16;;;;;;;31.52;28.23;;;;;;;20.89;59.90;99161.84;3550080;40;20042;-60
2021/06/25 11:14:44;;;;;;;31.67;28.13;;;;;;;20.86;59.57;99160.47;3549175;40;20393;-60
2021/06/25 11:17:11;;;;;;;28.60;25.70;;;;;;;20.98;59.51;99157.63;3548444;40;20389;-60
2021/06/25 11:19:41;;;;;;;23.42;20.75;;;;;;;21.19;59.36;99158.69;3550014;40;20136;-60
2021/06/25 11:22:37;;;;;;;23.63;21.05;;;;;;;21.48;58.60;99149.31;3550587;40;20386;-63
2021/06/25 11:25:11;;;;;;;24.00;21.40;;;;;;;21.65;57.82;99149.19;3551015;40;20061;-63
2021/06/25 11:28:10;;;;;;;22.05;17.60;;;;;;;21.83;55.33;99147.97;3550442;40;20054;-61
2021/06/25 11:30:58;;;;;;;21.80;19.10;;;;;;;21.89;54.50;99146.16;3549834;40;20045;-60
2021/06/25 11:33:32;;;;;;;17.77;15.10;;;;;;;22.01;54.02;99152.97;3549116;40;20062;-59
2021/06/25 11:36:38;;;;;;;19.70;17.00;;;;;;;21.94;52.46;99154.25;3549012;40;20419;-60
2021/06/25 11:39:20;;;;;;;18.52;16.58;;;;;;;21.83;53.24;99149.88;3549145;40;20136;-61
2021/06/25 11:41:55;;;;;;;17.48;15.68;;;;;;;22.00;52.88;99142.44;3549033;40;20128;-59